Time;durP1;ratioP1;P1;durP2;ratioP2;P2;SDS_P1;SDS_P2;PMS_P1;PMS_P2;Temp;Humidity;BMP_temperature;BMP_pressure;BME280_temperature;BME280_humidity;BME280_pressure;Samples;Min_cycle;Max_cycle;Signal;HPM_P1;HPM_P2
2023/10/10 00:01:02;;;;;;;26.40;16.08;;;;;;;;;;5064105;28;20553;-73
2023/10/10 00:03:31;;;;;;;25.73;15.67;;;;;;;;;;5034332;28;20127;-72
2023/10/10 00:05:58;;;;;;;21.10;14.43;;;;;;;;;;5048134;28;20052;-73
2023/10/10 00:08:33;;;;;;;22.15;14.65;;;;;;;;;;5052060;28;20056;-73
2023/10/10 00:11:00;;;;;;;23.83;14.98;;;;;;;;;;5052056;28;20525;-73
2023/10/10 00:13:27;;;;;;;21.15;16.13;;;;;;;;;;5060087;28;20036;-73
2023/10/10 00:15:56;;;;;;;24.55;16.33;;;;;;;;;;5064624;28;20052;-73
2023/10/10 00:18:24;;;;;;;24.48;16.02;;;;;;;;;;5060110;28;20055;-75
2023/10/10 00:21:06;;;;;;;21.10;15.18;;;;;;;;;;5046342;28;20048;-73
2023/10/10 00:23:39;;;;;;;22.00;15.45;;;;;;;;;;5040440;28;20044;-74
2023/10/10 00:26:08;;;;;;;21.55;14.82;;;;;;;;;;5062614;28;20052;-75
2023/10/10 00:28:35;;;;;;;20.33;14.02;;;;;;;;;;5065429;28;20063;-73
2023/10/10 00:31:03;;;;;;;20.40;14.88;;;;;;;;;;5064081;28;20075;-73
2023/10/10 00:33:31;;;;;;;19.20;14.57;;;;;;;;;;5065586;28;20393;-73
2023/10/10 00:35:59;;;;;;;23.15;14.40;;;;;;;;;;5059212;28;20475;-72
2023/10/10 00:38:29;;;;;;;22.58;14.93;;;;;;;;;;5067683;28;20540;-73
2023/10/10 00:40:57;;;;;;;20.33;15.05;;;;;;;;;;5063605;28;20037;-73
2023/10/10 00:43:24;;;;;;;22.55;14.60;;;;;;;;;;5047735;28;20051;-73
2023/10/10 00:45:57;;;;;;;21.75;15.32;;;;;;;;;;5043253;28;20116;-72
2023/10/10 00:48:29;;;;;;;23.58;15.07;;;;;;;;;;5041148;28;20501;-73
2023/10/10 00:51:10;;;;;;;21.25;14.85;;;;;;;;;;5065981;28;20478;-73
2023/10/10 00:53:39;;;;;;;23.80;15.10;;;;;;;;;;5041812;28;20056;-72
2023/10/10 00:56:06;;;;;;;20.75;14.48;;;;;;;;;;5076468;28;20048;-73
2023/10/10 00:58:36;;;;;;;22.98;14.30;;;;;;;;;;5067045;28;20052;-73
2023/10/10 01:01:14;;;;;;;18.05;13.25;;;;;;;;;;5057470;28;20060;-72
2023/10/10 01:03:45;;;;;;;23.23;15.48;;;;;;;;;;5045590;28;20591;-73
2023/10/10 01:06:24;;;;;;;22.70;14.70;;;;;;;;;;5037943;28;20080;-73
2023/10/10 01:08:57;;;;;;;24.52;14.40;;;;;;;;;;5045807;28;20663;-73
2023/10/10 01:11:23;;;;;;;20.40;14.00;;;;;;;;;;5058624;28;20044;-73
2023/10/10 01:13:52;;;;;;;23.77;15.20;;;;;;;;;;5055896;28;20057;-73
2023/10/10 01:16:23;;;;;;;19.98;15.23;;;;;;;;;;5041968;28;20064;-73
2023/10/10 01:19:00;;;;;;;23.40;16.13;;;;;;;;;;5026716;28;20048;-73
2023/10/10 01:21:31;;;;;;;22.77;14.63;;;;;;;;;;5057757;28;20048;-73
2023/10/10 01:24:21;;;;;;;22.10;15.25;;;;;;;;;;5039321;28;20040;-73
2023/10/10 01:26:51;;;;;;;22.52;15.85;;;;;;;;;;5045969;28;20859;-73
2023/10/10 01:29:25;;;;;;;23.77;16.90;;;;;;;;;;5046424;28;20117;-73
2023/10/10 01:31:53;;;;;;;22.85;14.80;;;;;;;;;;5050416;28;20497;-73
2023/10/10 01:35:09;;;;;;;23.10;15.10;;;;;;;;;;5030677;28;20079;-72
2023/10/10 01:37:14;;;;;;;26.40;15.75;;;;;;;;;;5054544;28;20718;-73
2023/10/10 01:40:16;;;;;;;24.20;15.00;;;;;;;;;;5062741;28;20087;-72
2023/10/10 01:42:53;;;;;;;23.90;15.45;;;;;;;;;;5061207;28;20056;-73
2023/10/10 01:45:20;;;;;;;;;;;;;;;;;;5060075;28;20742;-73
2023/10/10 01:47:57;;;;;;;22.67;14.65;;;;;;;;;;5051776;28;19921;-73
2023/10/10 01:50:26;;;;;;;19.55;15.15;;;;;;;;;;5063861;28;20059;-73
2023/10/10 01:52:56;;;;;;;28.00;17.27;;;;;;;;;;5069489;28;20053;-73
2023/10/10 01:55:24;;;;;;;28.08;17.35;;;;;;;;;;5063200;28;20052;-73
2023/10/10 01:57:52;;;;;;;25.02;17.10;;;;;;;;;;5054100;28;20153;-73
2023/10/10 02:00:26;;;;;;;24.20;16.10;;;;;;;;;;5042550;28;20045;-73
2023/10/10 02:02:56;;;;;;;21.63;15.15;;;;;;;;;;5067615;28;20416;-73
2023/10/10 02:05:36;;;;;;;25.50;15.73;;;;;;;;;;5069710;28;20076;-73
2023/10/10 02:08:09;;;;;;;27.52;16.60;;;;;;;;;;5072065;28;20083;-73
2023/10/10 02:10:37;;;;;;;28.10;16.70;;;;;;;;;;5042079;28;20110;-73
2023/10/10 02:13:06;;;;;;;24.80;16.52;;;;;;;;;;5059779;28;20048;-74
2023/10/10 02:15:35;;;;;;;24.98;16.65;;;;;;;;;;5040406;28;20467;-73
2023/10/10 02:18:04;;;;;;;24.50;16.83;;;;;;;;;;5062247;28;20159;-73
2023/10/10 02:23:10;;;;;;;22.08;15.60;;;;;;;;;;5048390;28;20474;-73
2023/10/10 02:25:40;;;;;;;22.15;15.38;;;;;;;;;;5038663;28;20728;-73
2023/10/10 02:28:19;;;;;;;26.27;16.23;;;;;;;;;;5043336;28;20494;-73
2023/10/10 02:30:50;;;;;;;23.58;15.75;;;;;;;;;;5061825;28;20048;-73
2023/10/10 02:36:12;;;;;;;25.20;16.08;;;;;;;;;;5064798;28;20488;-73
2023/10/10 02:38:39;;;;;;;25.73;16.67;;;;;;;;;;5067534;28;20148;-73
2023/10/10 02:46:38;;;;;;;27.40;17.33;;;;;;;;;;5077191;28;20060;-73
2023/10/10 02:49:12;;;;;;;25.10;16.50;;;;;;;;;;5048498;28;20128;-73
2023/10/10 02:51:42;;;;;;;25.50;16.60;;;;;;;;;;5052829;28;20056;-73
2023/10/10 02:56:58;;;;;;;24.73;16.50;;;;;;;;;;5043198;28;20045;-73
2023/10/10 02:59:31;;;;;;;24.73;16.83;;;;;;;;;;5042130;28;20049;-73
2023/10/10 03:01:59;;;;;;;27.90;17.55;;;;;;;;;;5038722;28;20117;-73
2023/10/10 03:04:52;;;;;;;31.73;17.27;;;;;;;;;;5061951;28;20244;-73
2023/10/10 03:07:28;;;;;;;27.50;16.67;;;;;;;;;;5056478;28;20045;-73
2023/10/10 03:12:41;;;;;;;26.58;17.67;;;;;;;;;;5063147;28;20101;-73
2023/10/10 03:15:27;;;;;;;28.70;17.90;;;;;;;;;;5051244;28;20083;-74
2023/10/10 03:18:15;;;;;;;25.17;17.58;;;;;;;;;;5065961;28;20048;-73
2023/10/10 03:26:34;;;;;;;31.23;19.98;;;;;;;;;;5050162;28;20059;-73
2023/10/10 03:28:34;;;;;;;38.35;21.77;;;;;;;;;;5046170;28;20041;-73
2023/10/10 05:23:47;;;;;;;57.60;28.85;;;;;;;;;;5058541;28;20101;-73
2023/10/10 05:26:15;;;;;;;58.08;30.85;;;;;;;;;;5036702;28;20708;-74
2023/10/10 05:28:45;;;;;;;63.55;32.50;;;;;;;;;;5039874;28;20416;-73
2023/10/10 05:31:11;;;;;;;71.60;30.83;;;;;;;;;;5066343;28;20556;-73
2023/10/10 05:33:38;;;;;;;62.72;30.33;;;;;;;;;;5061768;28;20055;-73
2023/10/10 05:36:06;;;;;;;50.70;30.55;;;;;;;;;;5041044;28;20123;-74
2023/10/10 05:38:39;;;;;;;63.17;29.55;;;;;;;;;;5033977;28;20341;-73
2023/10/10 05:41:06;;;;;;;68.53;31.48;;;;;;;;;;5060308;28;20051;-74
2023/10/10 05:43:34;;;;;;;63.10;31.23;;;;;;;;;;5059548;28;20067;-73
2023/10/10 05:46:01;;;;;;;64.20;30.67;;;;;;;;;;5073277;28;20594;-73
2023/10/10 05:48:27;;;;;;;57.50;30.25;;;;;;;;;;5045475;28;20561;-73
2023/10/10 05:50:54;;;;;;;63.40;32.60;;;;;;;;;;5060349;28;20123;-73
2023/10/10 05:53:20;;;;;;;58.17;30.60;;;;;;;;;;5038866;28;20047;-73
2023/10/10 05:55:53;;;;;;;52.95;30.90;;;;;;;;;;5043454;28;20056;-73
2023/10/10 05:58:20;;;;;;;57.97;31.10;;;;;;;;;;5060807;28;20075;-73
2023/10/10 06:00:48;;;;;;;59.53;30.75;;;;;;;;;;5064482;28;20064;-74
2023/10/10 06:03:16;;;;;;;59.05;31.50;;;;;;;;;;5044898;28;20053;-73
2023/10/10 06:05:49;;;;;;;51.08;29.42;;;;;;;;;;5060900;28;20168;-73
2023/10/10 06:08:16;;;;;;;60.28;31.40;;;;;;;;;;5058882;28;20489;-73
2023/10/10 06:10:43;;;;;;;58.42;31.35;;;;;;;;;;5061152;28;20052;-73
2023/10/10 06:13:11;;;;;;;58.40;28.88;;;;;;;;;;5048224;28;20224;-73
2023/10/10 06:15:38;;;;;;;62.90;32.63;;;;;;;;;;5061054;28;20377;-73
2023/10/10 06:18:13;;;;;;;55.05;29.95;;;;;;;;;;5028342;28;20095;-73
2023/10/10 06:20:44;;;;;;;106.75;32.85;;;;;;;;;;5072965;28;20468;-73
2023/10/10 06:23:20;;;;;;;76.20;31.48;;;;;;;;;;5068782;28;20102;-73
2023/10/10 06:25:48;;;;;;;59.88;32.33;;;;;;;;;;5058532;28;20048;-73
2023/10/10 06:28:22;;;;;;;50.33;28.60;;;;;;;;;;5064177;28;20052;-73
2023/10/10 06:30:55;;;;;;;53.58;27.77;;;;;;;;;;5073830;28;20094;-73
2023/10/10 06:33:28;;;;;;;58.03;28.83;;;;;;;;;;5074863;28;20034;-74
2023/10/10 06:39:18;;;;;;;54.28;27.90;;;;;;;;;;5082231;28;20075;-74
2023/10/10 06:41:47;;;;;;;;;;;;;;;;;;5071733;28;20098;-73
2023/10/10 06:44:14;;;;;;;68.90;27.80;;;;;;;;;;5049643;28;19924;-74
2023/10/10 06:46:41;;;;;;;53.15;29.00;;;;;;;;;;5068166;28;20504;-73
2023/10/10 06:49:11;;;;;;;42.70;25.40;;;;;;;;;;5065662;28;20072;-73
2023/10/10 06:51:41;;;;;;;41.92;26.38;;;;;;;;;;5057407;28;20053;-73
2023/10/10 06:54:09;;;;;;;51.15;29.75;;;;;;;;;;5045801;28;20399;-73
2023/10/10 06:56:44;;;;;;;47.53;31.15;;;;;;;;;;5038905;28;20402;-73
2023/10/10 06:59:20;;;;;;;52.10;32.80;;;;;;;;;;5040740;28;20468;-73
2023/10/10 07:01:48;;;;;;;54.20;33.35;;;;;;;;;;5057346;28;20453;-73
2023/10/10 07:04:16;;;;;;;51.75;33.85;;;;;;;;;;5063195;28;20048;-73
2023/10/10 07:06:44;;;;;;;55.78;34.10;;;;;;;;;;5063350;28;20365;-73
2023/10/10 07:09:14;;;;;;;52.72;33.85;;;;;;;;;;5050977;28;20071;-73
2023/10/10 07:11:41;;;;;;;47.10;30.67;;;;;;;;;;5032999;28;20135;-73
2023/10/10 07:14:10;;;;;;;51.55;33.83;;;;;;;;;;5062415;28;20044;-73
2023/10/10 07:16:42;;;;;;;52.47;32.85;;;;;;;;;;5085058;28;20048;-73
2023/10/10 07:19:19;;;;;;;48.08;32.03;;;;;;;;;;5048814;28;20052;-73
2023/10/10 07:21:47;;;;;;;46.65;30.63;;;;;;;;;;5043078;28;20047;-73
2023/10/10 07:24:15;;;;;;;41.92;29.35;;;;;;;;;;5064581;28;20060;-73
2023/10/10 07:26:43;;;;;;;45.72;27.33;;;;;;;;;;5058248;28;20052;-73
2023/10/10 07:29:30;;;;;;;43.43;28.03;;;;;;;;;;5065183;28;20048;-73
2023/10/10 07:33:00;;;;;;;48.67;28.37;;;;;;;;;;5041857;28;20282;-73
2023/10/10 07:34:54;;;;;;;41.42;27.25;;;;;;;;;;5044450;28;20052;-73
2023/10/10 07:37:27;;;;;;;41.75;26.02;;;;;;;;;;5054664;28;20520;-73
2023/10/10 07:40:18;;;;;;;37.00;26.00;;;;;;;;;;5040938;28;20136;-73
2023/10/10 07:42:49;;;;;;;36.42;25.80;;;;;;;;;;5065380;28;20084;-73
2023/10/10 07:45:16;;;;;;;35.83;25.40;;;;;;;;;;5066564;28;20143;-73
2023/10/10 07:50:34;;;;;;;32.83;24.73;;;;;;;;;;5041171;28;20570;-74
2023/10/10 07:53:06;;;;;;;35.20;24.33;;;;;;;;;;5049917;28;20106;-72
2023/10/10 07:58:24;;;;;;;39.47;23.45;;;;;;;;;;5058393;28;20070;-72
2023/10/10 08:01:11;;;;;;;34.63;24.38;;;;;;;;;;5059677;28;20051;-72
2023/10/10 08:03:44;;;;;;;31.30;21.23;;;;;;;;;;5062511;28;20344;-72
2023/10/10 08:06:12;;;;;;;35.92;23.33;;;;;;;;;;5053085;28;20079;-72
2023/10/10 08:08:40;;;;;;;31.85;21.70;;;;;;;;;;5049287;28;20094;-72
2023/10/10 08:11:12;;;;;;;30.17;21.02;;;;;;;;;;5063216;28;20102;-72
2023/10/10 08:13:48;;;;;;;32.03;22.02;;;;;;;;;;5064836;28;20499;-72
2023/10/10 08:16:20;;;;;;;30.40;21.38;;;;;;;;;;5062823;28;20052;-72
2023/10/10 08:21:14;;;;;;;29.73;21.17;;;;;;;;;;5075240;28;20128;-72
2023/10/10 08:23:45;;;;;;;29.25;20.17;;;;;;;;;;5039385;28;20442;-72
2023/10/10 08:26:17;;;;;;;33.00;19.48;;;;;;;;;;5083996;28;20048;-72
2023/10/10 08:28:48;;;;;;;30.52;20.30;;;;;;;;;;5072158;28;20045;-72
2023/10/10 08:31:15;;;;;;;28.50;19.33;;;;;;;;;;5048791;28;20179;-73
2023/10/10 08:33:46;;;;;;;28.10;20.23;;;;;;;;;;5080318;28;20059;-72
2023/10/10 08:36:23;;;;;;;27.60;19.77;;;;;;;;;;5041042;28;20041;-73
2023/10/10 08:38:53;;;;;;;29.13;20.35;;;;;;;;;;5047146;28;20052;-72
2023/10/10 08:41:21;;;;;;;28.75;20.50;;;;;;;;;;5050611;28;20413;-72
2023/10/10 08:43:53;;;;;;;28.80;19.15;;;;;;;;;;5072769;28;20535;-72
2023/10/10 08:46:22;;;;;;;26.88;18.88;;;;;;;;;;5035995;28;20049;-72
2023/10/10 08:48:49;;;;;;;30.65;17.10;;;;;;;;;;5044735;28;20045;-73
2023/10/10 08:51:17;;;;;;;26.15;18.48;;;;;;;;;;5047601;28;20045;-73
2023/10/10 08:53:44;;;;;;;28.52;19.70;;;;;;;;;;5053428;28;20476;-73
2023/10/10 08:56:14;;;;;;;30.40;19.58;;;;;;;;;;5072255;28;20044;-73
2023/10/10 08:58:41;;;;;;;30.60;17.20;;;;;;;;;;5039327;28;20210;-73
2023/10/10 09:01:08;;;;;;;27.30;17.33;;;;;;;;;;5048122;28;20079;-73
2023/10/10 09:03:35;;;;;;;24.15;16.70;;;;;;;;;;5048694;28;20052;-73
2023/10/10 09:06:13;;;;;;;27.13;18.50;;;;;;;;;;5042862;28;20144;-73
2023/10/10 09:08:43;;;;;;;28.02;18.63;;;;;;;;;;5076331;28;20730;-73
2023/10/10 09:11:11;;;;;;;25.23;18.08;;;;;;;;;;5044884;28;20135;-73
2023/10/10 09:13:47;;;;;;;24.98;18.10;;;;;;;;;;5046539;28;20586;-73
2023/10/10 09:16:14;;;;;;;25.25;17.67;;;;;;;;;;5072027;28;20048;-73
2023/10/10 09:18:40;;;;;;;27.17;17.92;;;;;;;;;;5067892;28;20147;-74
2023/10/10 09:21:18;;;;;;;28.35;17.48;;;;;;;;;;5060299;28;20051;-74
2023/10/10 09:24:06;;;;;;;23.23;16.42;;;;;;;;;;5074400;28;20048;-73
2023/10/10 09:26:36;;;;;;;24.48;16.35;;;;;;;;;;5040892;28;20106;-73
2023/10/10 09:29:15;;;;;;;29.48;18.40;;;;;;;;;;5077569;28;20048;-73
2023/10/10 09:31:45;;;;;;;24.55;16.83;;;;;;;;;;5066621;28;20048;-73
2023/10/10 09:34:18;;;;;;;28.55;19.30;;;;;;;;;;5069125;28;20072;-73
2023/10/10 09:36:50;;;;;;;24.17;16.92;;;;;;;;;;5059537;28;20424;-74
2023/10/10 09:39:36;;;;;;;25.38;17.60;;;;;;;;;;5053703;28;20045;-73
2023/10/10 09:42:07;;;;;;;24.85;16.85;;;;;;;;;;5052275;28;20057;-73
2023/10/10 09:45:16;;;;;;;25.13;17.13;;;;;;;;;;5072672;28;20766;-74
2023/10/10 09:48:05;;;;;;;25.77;17.50;;;;;;;;;;5062423;28;20425;-73
2023/10/10 09:50:45;;;;;;;25.83;18.02;;;;;;;;;;5048526;28;20072;-73
2023/10/10 09:53:21;;;;;;;25.90;16.90;;;;;;;;;;5061820;28;20098;-73
2023/10/10 09:55:48;;;;;;;22.73;15.10;;;;;;;;;;5034592;28;20472;-73
2023/10/10 10:06:06;;;;;;;26.73;16.98;;;;;;;;;;5069777;28;20074;-74
2023/10/10 10:08:40;;;;;;;26.85;17.67;;;;;;;;;;5044254;28;20225;-74
2023/10/10 10:11:16;;;;;;;26.33;17.63;;;;;;;;;;5037817;28;20056;-74
2023/10/10 10:13:54;;;;;;;24.38;17.48;;;;;;;;;;5036437;28;20067;-74
2023/10/10 10:16:37;;;;;;;25.83;17.42;;;;;;;;;;5047253;28;20393;-73
2023/10/10 10:19:19;;;;;;;21.20;15.80;;;;;;;;;;5064949;28;20056;-73
2023/10/10 10:21:55;;;;;;;24.58;17.15;;;;;;;;;;5079818;28;20044;-73
2023/10/10 10:24:29;;;;;;;23.13;16.73;;;;;;;;;;5052002;28;20053;-73
2023/10/10 10:32:49;;;;;;;25.92;17.35;;;;;;;;;;5057541;28;20125;-74
2023/10/10 10:35:24;;;;;;;23.00;16.60;;;;;;;;;;5038881;28;20112;-74
2023/10/10 10:37:55;;;;;;;24.17;17.08;;;;;;;;;;5057210;28;20148;-72
2023/10/10 10:40:41;;;;;;;27.38;17.75;;;;;;;;;;5047588;28;20512;-73
2023/10/10 10:43:14;;;;;;;29.02;19.45;;;;;;;;;;5034605;28;20083;-73
2023/10/10 10:45:44;;;;;;;29.23;17.50;;;;;;;;;;5075867;28;20138;-73
2023/10/10 10:48:29;;;;;;;24.00;15.93;;;;;;;;;;5071583;28;20455;-73
2023/10/10 10:51:01;;;;;;;24.77;17.15;;;;;;;;;;5051583;28;20136;-73
2023/10/10 10:53:35;;;;;;;27.08;17.30;;;;;;;;;;5052202;28;20548;-73
2023/10/10 10:59:19;;;;;;;26.10;16.50;;;;;;;;;;5003695;28;20055;-73
2023/10/10 11:01:51;;;;;;;21.92;15.30;;;;;;;;;;5061695;28;20394;-74
2023/10/10 11:04:26;;;;;;;25.10;15.35;;;;;;;;;;5059031;28;20079;-73
2023/10/10 11:07:00;;;;;;;24.08;14.93;;;;;;;;;;5037776;28;20425;-73
2023/10/10 11:09:31;;;;;;;20.67;15.10;;;;;;;;;;5058897;28;20090;-73
2023/10/10 11:12:05;;;;;;;24.13;13.93;;;;;;;;;;5049287;28;21247;-73
2023/10/10 11:14:45;;;;;;;21.45;14.52;;;;;;;;;;5041117;28;20049;-73
2023/10/10 11:17:18;;;;;;;20.70;14.70;;;;;;;;;;5033243;28;20052;-73
2023/10/10 11:19:46;;;;;;;22.30;14.70;;;;;;;;;;5065691;28;20131;-73
2023/10/10 11:23:07;;;;;;;24.17;15.50;;;;;;;;;;5026314;28;20057;-73
2023/10/10 11:25:04;;;;;;;22.27;14.73;;;;;;;;;;5062137;28;20598;-73
2023/10/10 11:27:35;;;;;;;23.02;15.25;;;;;;;;;;5071052;28;20055;-73
2023/10/10 11:30:08;;;;;;;25.75;15.10;;;;;;;;;;5042891;28;20048;-73
2023/10/10 11:32:45;;;;;;;22.23;15.13;;;;;;;;;;5054081;28;20045;-73
2023/10/10 11:35:22;;;;;;;27.92;16.00;;;;;;;;;;5059380;28;20862;-73
2023/10/10 11:37:59;;;;;;;22.58;14.40;;;;;;;;;;5068317;28;20408;-73
2023/10/10 11:42:56;;;;;;;20.92;14.52;;;;;;;;;;5064025;28;20084;-74
2023/10/10 11:45:28;;;;;;;21.42;14.55;;;;;;;;;;5066294;28;20098;-73
2023/10/10 11:48:05;;;;;;;21.80;14.30;;;;;;;;;;5058459;28;20452;-73
2023/10/10 11:50:45;;;;;;;22.10;12.48;;;;;;;;;;5048754;28;20048;-73
2023/10/10 11:53:13;;;;;;;20.50;14.13;;;;;;;;;;5040316;28;20107;-73
2023/10/10 11:55:43;;;;;;;19.80;12.60;;;;;;;;;;5031061;28;20497;-74
2023/10/10 11:58:16;;;;;;;22.55;12.30;;;;;;;;;;5051011;28;20044;-73
2023/10/10 12:00:44;;;;;;;21.48;13.27;;;;;;;;;;5078815;28;20056;-73
2023/10/10 12:03:11;;;;;;;23.20;13.13;;;;;;;;;;5049520;28;20141;-73
2023/10/10 12:05:47;;;;;;;22.77;12.35;;;;;;;;;;5063596;28;20293;-73
2023/10/10 12:08:24;;;;;;;18.77;12.73;;;;;;;;;;5063672;28;20083;-74
2023/10/10 12:10:52;;;;;;;21.00;11.67;;;;;;;;;;5072712;28;20486;-73
2023/10/10 12:13:44;;;;;;;23.92;13.27;;;;;;;;;;5057571;28;20377;-73
2023/10/10 12:16:12;;;;;;;20.58;12.48;;;;;;;;;;5060359;28;20076;-73
2023/10/10 12:18:52;;;;;;;19.30;12.88;;;;;;;;;;5066920;28;20045;-73
2023/10/10 12:21:20;;;;;;;20.33;11.90;;;;;;;;;;5066765;28;20447;-73
2023/10/10 12:23:49;;;;;;;20.30;12.95;;;;;;;;;;5062369;28;20132;-73
2023/10/10 12:26:17;;;;;;;20.73;14.25;;;;;;;;;;5046292;28;20559;-73
2023/10/10 12:28:46;;;;;;;20.90;13.73;;;;;;;;;;5065725;28;20940;-73
2023/10/10 12:31:16;;;;;;;21.02;11.77;;;;;;;;;;5054610;28;20049;-73
2023/10/10 12:33:48;;;;;;;18.02;11.80;;;;;;;;;;5047207;28;20044;-74
2023/10/10 12:36:15;;;;;;;18.52;11.13;;;;;;;;;;5052279;28;20045;-74
2023/10/10 12:38:42;;;;;;;21.25;12.75;;;;;;;;;;5059525;28;20490;-73
2023/10/10 12:41:11;;;;;;;17.90;11.43;;;;;;;;;;5048119;28;20465;-73
2023/10/10 12:43:38;;;;;;;20.13;10.63;;;;;;;;;;5058491;28;20055;-72
2023/10/10 12:46:07;;;;;;;19.30;11.70;;;;;;;;;;5069490;28;20056;-73
2023/10/10 12:48:39;;;;;;;19.67;12.13;;;;;;;;;;5035068;28;20496;-73
2023/10/10 12:51:09;;;;;;;19.27;11.55;;;;;;;;;;5042503;28;20053;-73
2023/10/10 12:53:39;;;;;;;16.98;11.73;;;;;;;;;;5059731;28;20721;-73
2023/10/10 12:56:10;;;;;;;17.92;10.57;;;;;;;;;;5077201;28;20071;-74
2023/10/10 12:58:43;;;;;;;20.33;12.13;;;;;;;;;;5057571;28;20079;-74
2023/10/10 13:01:14;;;;;;;20.45;11.82;;;;;;;;;;5034476;28;20409;-74
2023/10/10 13:03:47;;;;;;;19.30;12.25;;;;;;;;;;5059137;28;20057;-73
2023/10/10 13:06:14;;;;;;;20.05;12.02;;;;;;;;;;5039967;28;20063;-73
2023/10/10 13:08:48;;;;;;;19.60;12.27;;;;;;;;;;5065911;28;20146;-73
2023/10/10 13:11:15;;;;;;;20.23;13.15;;;;;;;;;;5050382;28;20078;-73
2023/10/10 13:13:45;;;;;;;21.97;11.37;;;;;;;;;;5059796;28;20068;-72
2023/10/10 13:16:26;;;;;;;25.73;12.13;;;;;;;;;;5056386;28;20045;-74
2023/10/10 13:18:53;;;;;;;16.13;11.23;;;;;;;;;;5038292;28;20456;-72
2023/10/10 13:21:22;;;;;;;19.40;11.23;;;;;;;;;;5059348;28;20117;-73
2023/10/10 13:23:49;;;;;;;17.53;11.23;;;;;;;;;;5051672;28;20134;-73
2023/10/10 13:26:21;;;;;;;16.43;10.47;;;;;;;;;;5051355;28;20051;-73
2023/10/10 13:28:48;;;;;;;16.17;10.90;;;;;;;;;;5066848;28;20147;-73
2023/10/10 13:31:15;;;;;;;19.05;10.43;;;;;;;;;;5071144;28;20072;-74
2023/10/10 13:33:42;;;;;;;15.52;10.57;;;;;;;;;;5048590;28;20048;-73
2023/10/10 13:36:14;;;;;;;18.55;10.18;;;;;;;;;;5064424;28;20049;-73
2023/10/10 13:38:50;;;;;;;18.90;11.15;;;;;;;;;;5062251;28;20052;-73
2023/10/10 13:41:18;;;;;;;17.67;10.27;;;;;;;;;;5057068;28;20078;-73
2023/10/10 13:43:46;;;;;;;16.85;10.02;;;;;;;;;;5069588;28;20135;-73
2023/10/10 13:46:16;;;;;;;19.10;10.05;;;;;;;;;;5034134;28;20136;-73
2023/10/10 13:48:42;;;;;;;15.52;8.98;;;;;;;;;;5064473;28;20044;-73
2023/10/10 13:51:09;;;;;;;15.43;9.02;;;;;;;;;;5040847;28;20060;-73
2023/10/10 13:53:39;;;;;;;14.88;8.55;;;;;;;;;;5064133;28;20053;-73
2023/10/10 13:56:10;;;;;;;22.05;9.13;;;;;;;;;;5034140;28;20044;-73
2023/10/10 13:58:37;;;;;;;14.07;9.32;;;;;;;;;;5054394;28;20044;-73
2023/10/10 14:03:46;;;;;;;14.73;8.60;;;;;;;;;;5072344;28;20051;-73
2023/10/10 14:06:19;;;;;;;14.85;8.93;;;;;;;;;;5077140;28;21082;-73
2023/10/10 14:08:47;;;;;;;15.57;9.20;;;;;;;;;;5039509;28;20045;-73
2023/10/10 14:11:20;;;;;;;14.23;8.25;;;;;;;;;;5046761;28;20048;-73
2023/10/10 14:13:51;;;;;;;16.45;9.77;;;;;;;;;;5054378;28;20243;-73
2023/10/10 14:16:18;;;;;;;20.05;9.02;;;;;;;;;;5073790;28;20040;-73
2023/10/10 14:18:47;;;;;;;17.60;8.93;;;;;;;;;;5052475;28;20056;-73
2023/10/10 14:21:14;;;;;;;20.52;9.05;;;;;;;;;;5059106;28;20472;-75
2023/10/10 14:23:45;;;;;;;16.08;9.25;;;;;;;;;;5055548;28;20515;-73
2023/10/10 14:26:18;;;;;;;19.88;9.40;;;;;;;;;;5065779;28;20066;-73
2023/10/10 14:28:52;;;;;;;16.65;9.00;;;;;;;;;;5052530;28;20093;-73
2023/10/10 14:31:21;;;;;;;16.98;8.90;;;;;;;;;;5037957;28;20436;-73
2023/10/10 14:33:48;;;;;;;13.27;9.38;;;;;;;;;;5042318;28;20120;-74
2023/10/10 14:36:15;;;;;;;14.88;8.88;;;;;;;;;;5049868;28;20098;-73
2023/10/10 14:38:45;;;;;;;15.70;8.50;;;;;;;;;;5067237;28;20040;-73
2023/10/10 14:41:16;;;;;;;17.33;8.85;;;;;;;;;;5026890;28;20076;-73
2023/10/10 14:43:49;;;;;;;15.23;8.65;;;;;;;;;;5046209;28;20450;-73
2023/10/10 14:46:21;;;;;;;15.20;9.38;;;;;;;;;;5045332;28;20053;-73
2023/10/10 14:48:49;;;;;;;19.15;9.07;;;;;;;;;;5061945;28;20473;-73
2023/10/10 14:51:19;;;;;;;14.68;8.13;;;;;;;;;;5059264;28;20098;-74
2023/10/10 14:53:51;;;;;;;14.27;7.95;;;;;;;;;;5052274;28;20044;-73
2023/10/10 14:56:22;;;;;;;14.60;8.60;;;;;;;;;;5036745;28;20473;-73
2023/10/10 14:58:49;;;;;;;18.35;9.05;;;;;;;;;;5075968;28;20098;-73
2023/10/10 15:01:20;;;;;;;14.98;7.82;;;;;;;;;;5056569;28;20573;-73
2023/10/10 15:03:47;;;;;;;15.10;7.30;;;;;;;;;;5063684;28;20080;-73
2023/10/10 15:06:16;;;;;;;15.43;7.68;;;;;;;;;;5065450;28;20044;-73
2023/10/10 15:08:43;;;;;;;;;;;;;;;;;;5047103;28;20045;-73
2023/10/10 15:11:11;;;;;;;15.35;6.63;;;;;;;;;;5020690;28;19920;-74
2023/10/10 15:13:41;;;;;;;16.05;6.90;;;;;;;;;;5068721;28;20080;-73
2023/10/10 15:16:10;;;;;;;12.43;6.90;;;;;;;;;;5072031;28;20481;-73
2023/10/10 15:18:38;;;;;;;14.23;6.55;;;;;;;;;;5064673;28;20053;-73
2023/10/10 15:21:08;;;;;;;15.15;6.63;;;;;;;;;;5081849;28;20477;-73
2023/10/10 15:23:35;;;;;;;14.82;6.22;;;;;;;;;;5055895;28;20559;-73
2023/10/10 15:26:05;;;;;;;13.23;5.78;;;;;;;;;;5050883;28;20063;-73
2023/10/10 15:28:32;;;;;;;11.23;6.00;;;;;;;;;;5071997;28;20052;-73
2023/10/10 15:30:59;;;;;;;14.43;6.05;;;;;;;;;;5082427;28;20504;-73
2023/10/10 15:33:29;;;;;;;12.85;5.38;;;;;;;;;;5061767;28;20056;-73
2023/10/10 15:35:56;;;;;;;12.45;6.05;;;;;;;;;;5039969;28;20079;-73
2023/10/10 15:38:23;;;;;;;13.10;6.23;;;;;;;;;;5063876;28;20055;-73
2023/10/10 15:40:52;;;;;;;10.82;5.75;;;;;;;;;;5062335;28;20483;-74
2023/10/10 15:43:19;;;;;;;11.30;5.75;;;;;;;;;;5058201;28;20056;-73
2023/10/10 15:45:58;;;;;;;13.95;5.55;;;;;;;;;;5060418;28;20127;-74
2023/10/10 15:48:25;;;;;;;12.43;5.72;;;;;;;;;;5041132;28;20441;-74
2023/10/10 15:50:52;;;;;;;10.02;5.30;;;;;;;;;;5061782;28;20516;-73
2023/10/10 15:53:24;;;;;;;11.02;5.68;;;;;;;;;;5062727;28;20398;-73
2023/10/10 15:56:07;;;;;;;11.07;5.38;;;;;;;;;;5054724;28;20036;-73
2023/10/10 15:58:35;;;;;;;13.60;5.75;;;;;;;;;;5049992;28;20051;-73
2023/10/10 16:01:15;;;;;;;10.82;5.43;;;;;;;;;;5078721;28;20539;-73
2023/10/10 16:03:47;;;;;;;10.07;5.35;;;;;;;;;;5057820;28;20151;-73
2023/10/10 16:06:14;;;;;;;13.15;6.13;;;;;;;;;;5040320;28;20087;-72
2023/10/10 16:08:41;;;;;;;11.20;6.05;;;;;;;;;;5041230;28;20359;-73
2023/10/10 16:11:07;;;;;;;11.98;6.25;;;;;;;;;;5031657;28;20470;-72
2023/10/10 16:13:36;;;;;;;12.45;6.32;;;;;;;;;;5056196;28;20049;-72
2023/10/10 16:16:06;;;;;;;13.52;6.15;;;;;;;;;;5041660;28;20048;-72
2023/10/10 16:18:33;;;;;;;12.85;6.20;;;;;;;;;;5047203;28;20130;-73
2023/10/10 16:21:02;;;;;;;12.85;5.88;;;;;;;;;;5050450;28;20064;-72
2023/10/10 16:23:31;;;;;;;12.43;5.60;;;;;;;;;;5069173;28;20045;-72
2023/10/10 16:26:00;;;;;;;13.50;6.43;;;;;;;;;;5062419;28;20053;-72
2023/10/10 16:28:26;;;;;;;10.68;6.22;;;;;;;;;;5066819;28;20503;-72
2023/10/10 16:30:53;;;;;;;11.70;5.50;;;;;;;;;;5062985;28;20044;-72
2023/10/10 16:33:26;;;;;;;15.80;5.85;;;;;;;;;;5038569;28;20550;-72
2023/10/10 16:35:56;;;;;;;14.63;5.88;;;;;;;;;;5067759;28;20044;-72
2023/10/10 16:38:22;;;;;;;10.40;5.97;;;;;;;;;;5060830;28;20098;-72
2023/10/10 16:40:52;;;;;;;13.48;5.85;;;;;;;;;;5050606;28;20049;-72
2023/10/10 16:43:22;;;;;;;13.80;5.55;;;;;;;;;;5059586;28;20496;-72
2023/10/10 16:45:49;;;;;;;11.60;5.18;;;;;;;;;;5045249;28;20059;-74
2023/10/10 16:48:15;;;;;;;13.10;5.72;;;;;;;;;;5045891;28;20055;-71
2023/10/10 16:50:42;;;;;;;14.90;8.35;;;;;;;;;;5069166;28;20066;-72
2023/10/10 16:53:11;;;;;;;31.73;25.65;;;;;;;;;;5044895;28;20057;-72
2023/10/10 16:55:41;;;;;;;37.08;29.63;;;;;;;;;;5069868;28;20126;-72
2023/10/10 16:58:14;;;;;;;20.27;12.88;;;;;;;;;;5055049;28;20666;-72
2023/10/10 17:00:42;;;;;;;20.23;10.88;;;;;;;;;;5045861;28;20145;-72
2023/10/10 17:03:11;;;;;;;20.03;7.47;;;;;;;;;;5064848;28;20470;-71
2023/10/10 17:05:40;;;;;;;10.85;5.70;;;;;;;;;;5071744;28;20739;-71
2023/10/10 17:08:08;;;;;;;10.85;5.80;;;;;;;;;;5062398;28;20053;-73
2023/10/10 17:10:35;;;;;;;11.55;5.45;;;;;;;;;;5074854;28;20059;-71
2023/10/10 17:13:04;;;;;;;10.55;5.30;;;;;;;;;;5027013;28;20049;-72
2023/10/10 17:15:34;;;;;;;9.30;5.57;;;;;;;;;;5071292;28;20098;-71
2023/10/10 17:18:00;;;;;;;12.15;5.05;;;;;;;;;;5056241;28;20521;-71
2023/10/10 17:20:27;;;;;;;12.13;5.38;;;;;;;;;;5068313;28;20054;-73
2023/10/10 17:22:54;;;;;;;13.52;5.25;;;;;;;;;;5047056;28;20099;-72
2023/10/10 17:25:20;;;;;;;11.07;5.40;;;;;;;;;;5061447;28;20055;-72
2023/10/10 17:27:51;;;;;;;11.40;5.07;;;;;;;;;;5042641;28;20056;-72
2023/10/10 17:30:18;;;;;;;13.10;5.72;;;;;;;;;;5058843;28;20497;-71
2023/10/10 17:32:45;;;;;;;15.40;5.60;;;;;;;;;;5073914;28;20052;-72